sensor_id;sensor_type;location;lat;lon;timestamp;pressure;altitude;pressure_sealevel;temperature;humidity
42591;BME280;28218;53.342;-6.216;2023-03-18T00:00:05;99563.19;;;11.05;100.00
42591;BME280;28218;53.342;-6.216;2023-03-18T00:02:36;99559.75;;;11.04;100.00
42591;BME280;28218;53.342;-6.216;2023-03-18T00:05:08;99559.97;;;11.03;100.00
42591;BME280;28218;53.342;-6.216;2023-03-18T00:07:37;99568.88;;;11.02;100.00
42591;BME280;28218;53.342;-6.216;2023-03-18T00:10:09;99567.47;;;11.06;100.00
42591;BME280;28218;53.342;-6.216;2023-03-18T00:12:38;99568.06;;;11.01;100.00
42591;BME280;28218;53.342;-6.216;2023-03-18T00:15:09;99573.75;;;11.05;100.00
42591;BME280;28218;53.342;-6.216;2023-03-18T00:17:38;99572.13;;;11.04;100.00
42591;BME280;28218;53.342;-6.216;2023-03-18T00:20:10;99571.53;;;11.08;100.00
42591;BME280;28218;53.342;-6.216;2023-03-18T00:22:39;99571.13;;;11.11;100.00
42591;BME280;28218;53.342;-6.216;2023-03-18T00:25:11;99577.81;;;11.14;100.00
42591;BME280;28218;53.342;-6.216;2023-03-18T00:27:39;99579.44;;;11.15;100.00
42591;BME280;28218;53.342;-6.216;2023-03-18T00:30:09;99585.56;;;11.15;100.00
42591;BME280;28218;53.342;-6.216;2023-03-18T00:32:38;99587.34;;;11.15;100.00
42591;BME280;28218;53.342;-6.216;2023-03-18T00:35:09;99587.34;;;11.15;100.00
42591;BME280;28218;53.342;-6.216;2023-03-18T00:37:38;99593.63;;;11.14;100.00
42591;BME280;28218;53.342;-6.216;2023-03-18T00:40:09;99601.16;;;11.17;100.00
42591;BME280;28218;53.342;-6.216;2023-03-18T00:42:43;99602.19;;;11.16;100.00
42591;BME280;28218;53.342;-6.216;2023-03-18T00:45:16;99599.34;;;11.17;100.00
42591;BME280;28218;53.342;-6.216;2023-03-18T00:47:44;99598.31;;;11.18;100.00
42591;BME280;28218;53.342;-6.216;2023-03-18T00:50:15;99605.19;;;11.19;100.00
42591;BME280;28218;53.342;-6.216;2023-03-18T00:52:44;99600.13;;;11.18;100.00
42591;BME280;28218;53.342;-6.216;2023-03-18T00:55:12;99599.13;;;11.19;100.00
42591;BME280;28218;53.342;-6.216;2023-03-18T00:57:41;99608.69;;;11.20;100.00
42591;BME280;28218;53.342;-6.216;2023-03-18T01:00:10;99607.84;;;11.19;100.00
42591;BME280;28218;53.342;-6.216;2023-03-18T01:02:38;99607.03;;;11.19;100.00
42591;BME280;28218;53.342;-6.216;2023-03-18T01:05:09;99603.59;;;11.18;100.00
42591;BME280;28218;53.342;-6.216;2023-03-18T01:07:40;99605.03;;;11.21;100.00
42591;BME280;28218;53.342;-6.216;2023-03-18T01:10:09;99604.22;;;11.20;100.00
42591;BME280;28218;53.342;-6.216;2023-03-18T01:12:38;99612.72;;;11.22;100.00
42591;BME280;28218;53.342;-6.216;2023-03-18T01:15:08;99621.28;;;11.24;100.00
42591;BME280;28218;53.342;-6.216;2023-03-18T01:17:36;99614.97;;;11.25;100.00
42591;BME280;28218;53.342;-6.216;2023-03-18T01:20:05;99611.09;;;11.28;100.00
42591;BME280;28218;53.342;-6.216;2023-03-18T01:22:35;99605.84;;;11.28;100.00
42591;BME280;28218;53.342;-6.216;2023-03-18T01:25:07;99614.97;;;11.25;100.00
42591;BME280;28218;53.342;-6.216;2023-03-18T01:27:35;99617.78;;;11.24;100.00
42591;BME280;28218;53.342;-6.216;2023-03-18T01:30:05;99625.91;;;11.22;100.00
42591;BME280;28218;53.342;-6.216;2023-03-18T01:32:35;99631.81;;;11.24;100.00
42591;BME280;28218;53.342;-6.216;2023-03-18T01:35:04;99623.69;;;11.26;100.00
42591;BME280;28218;53.342;-6.216;2023-03-18T01:37:33;99635.06;;;11.26;100.00
42591;BME280;28218;53.342;-6.216;2023-03-18T01:40:01;99641.13;;;11.27;100.00
42591;BME280;28218;53.342;-6.216;2023-03-18T01:42:31;99635.06;;;11.26;100.00
42591;BME280;28218;53.342;-6.216;2023-03-18T01:45:15;99638.72;;;11.25;100.00
42591;BME280;28218;53.342;-6.216;2023-03-18T01:47:45;99645.00;;;11.24;100.00
42591;BME280;28218;53.342;-6.216;2023-03-18T01:50:15;99651.09;;;11.25;100.00
42591;BME280;28218;53.342;-6.216;2023-03-18T01:52:46;99646.41;;;11.27;100.00
42591;BME280;28218;53.342;-6.216;2023-03-18T01:55:18;99643.78;;;11.27;100.00
42591;BME280;28218;53.342;-6.216;2023-03-18T01:57:49;99650.66;;;11.28;100.00
42591;BME280;28218;53.342;-6.216;2023-03-18T02:00:19;99648.03;;;11.28;100.00
42591;BME280;28218;53.342;-6.216;2023-03-18T02:02:50;99651.47;;;11.29;100.00
42591;BME280;28218;53.342;-6.216;2023-03-18T02:05:21;99648.03;;;11.28;100.00
42591;BME280;28218;53.342;-6.216;2023-03-18T02:07:50;99647.00;;;11.29;100.00
42591;BME280;28218;53.342;-6.216;2023-03-18T02:10:20;99654.91;;;11.29;100.00
42591;BME280;28218;53.342;-6.216;2023-03-18T02:12:55;99649.66;;;11.29;100.00
42591;BME280;28218;53.342;-6.216;2023-03-18T02:15:28;99654.13;;;11.29;100.00
42591;BME280;28218;53.342;-6.216;2023-03-18T02:18:01;99660.19;;;11.29;100.00
42591;BME280;28218;53.342;-6.216;2023-03-18T02:20:39;99654.91;;;11.29;100.00
42591;BME280;28218;53.342;-6.216;2023-03-18T02:23:16;99663.47;;;11.31;100.00
42591;BME280;28218;53.342;-6.216;2023-03-18T02:25:51;99666.09;;;11.31;100.00
42591;BME280;28218;53.342;-6.216;2023-03-18T02:28:24;99668.75;;;11.31;100.00
42591;BME280;28218;53.342;-6.216;2023-03-18T02:30:56;99669.75;;;11.30;100.00
42591;BME280;28218;53.342;-6.216;2023-03-18T02:33:29;99668.75;;;11.31;100.00
42591;BME280;28218;53.342;-6.216;2023-03-18T02:36:03;99669.34;;;11.33;100.00
42591;BME280;28218;53.342;-6.216;2023-03-18T02:38:32;99667.94;;;11.31;100.00
42591;BME280;28218;53.342;-6.216;2023-03-18T02:41:01;99672.41;;;11.30;100.00
42591;BME280;28218;53.342;-6.216;2023-03-18T02:43:32;99669.75;;;11.30;100.00
42591;BME280;28218;53.342;-6.216;2023-03-18T02:46:10;99677.25;;;11.26;100.00
42591;BME280;28218;53.342;-6.216;2023-03-18T02:48:41;99682.09;;;11.23;100.00
42591;BME280;28218;53.342;-6.216;2023-03-18T02:51:12;99683.09;;;11.22;100.00
42591;BME280;28218;53.342;-6.216;2023-03-18T02:53:42;99680.84;;;11.19;100.00
42591;BME280;28218;53.342;-6.216;2023-03-18T02:56:11;99687.16;;;11.18;100.00
42591;BME280;28218;53.342;-6.216;2023-03-18T02:58:40;99694.03;;;11.19;100.00
42591;BME280;28218;53.342;-6.216;2023-03-18T03:01:09;99695.09;;;11.24;100.00
42591;BME280;28218;53.342;-6.216;2023-03-18T03:03:39;99697.31;;;11.21;100.00
42591;BME280;28218;53.342;-6.216;2023-03-18T03:06:07;99698.34;;;11.20;100.00
42591;BME280;28218;53.342;-6.216;2023-03-18T03:08:37;99699.31;;;11.19;100.00
42591;BME280;28218;53.342;-6.216;2023-03-18T03:11:06;99708.06;;;11.26;100.00
42591;BME280;28218;53.342;-6.216;2023-03-18T03:13:34;99705.66;;;11.24;100.00
42591;BME280;28218;53.342;-6.216;2023-03-18T03:16:04;99702.16;;;11.24;100.00
42591;BME280;28218;53.342;-6.216;2023-03-18T03:18:33;99706.03;;;11.21;100.00
42591;BME280;28218;53.342;-6.216;2023-03-18T03:21:03;99706.63;;;11.17;100.00
42591;BME280;28218;53.342;-6.216;2023-03-18T03:23:32;99715.13;;;11.19;100.00
42591;BME280;28218;53.342;-6.216;2023-03-18T03:26:00;99711.25;;;11.15;100.00
42591;BME280;28218;53.342;-6.216;2023-03-18T03:28:29;99709.84;;;11.12;100.00
42591;BME280;28218;53.342;-6.216;2023-03-18T03:30:59;99710.22;;;11.09;100.00
42591;BME280;28218;53.342;-6.216;2023-03-18T03:33:28;99718.34;;;11.08;100.00
42591;BME280;28218;53.342;-6.216;2023-03-18T03:35:57;99720.59;;;11.11;100.00
42591;BME280;28218;53.342;-6.216;2023-03-18T03:38:26;99725.44;;;11.07;100.00
42591;BME280;28218;53.342;-6.216;2023-03-18T03:40:54;99726.63;;;11.05;100.00
42591;BME280;28218;53.342;-6.216;2023-03-18T03:43:22;99733.94;;;11.03;100.00
42591;BME280;28218;53.342;-6.216;2023-03-18T03:45:50;99733.94;;;11.03;100.00
42591;BME280;28218;53.342;-6.216;2023-03-18T03:48:18;99734.94;;;11.02;100.00
42591;BME280;28218;53.342;-6.216;2023-03-18T03:50:49;99726.41;;;10.99;100.00
42591;BME280;28218;53.342;-6.216;2023-03-18T03:53:17;99734.50;;;10.98;100.00
42591;BME280;28218;53.342;-6.216;2023-03-18T03:55:45;99736.56;;;11.03;100.00
42591;BME280;28218;53.342;-6.216;2023-03-18T03:58:13;99736.56;;;11.03;100.00
42591;BME280;28218;53.342;-6.216;2023-03-18T04:00:42;99739.22;;;11.03;100.00
42591;BME280;28218;53.342;-6.216;2023-03-18T04:03:10;99738.41;;;11.02;100.00
42591;BME280;28218;53.342;-6.216;2023-03-18T04:05:39;99733.94;;;11.03;100.00
42591;BME280;28218;53.342;-6.216;2023-03-18T04:08:10;99737.75;;;11.00;100.00
42591;BME280;28218;53.342;-6.216;2023-03-18T04:10:38;99735.94;;;11.00;100.00
42591;BME280;28218;53.342;-6.216;2023-03-18T04:13:07;99734.94;;;11.02;100.00
42591;BME280;28218;53.342;-6.216;2023-03-18T04:15:36;99735.13;;;11.00;100.00
42591;BME280;28218;53.342;-6.216;2023-03-18T04:18:04;99738.78;;;10.99;100.00
42591;BME280;28218;53.342;-6.216;2023-03-18T04:20:34;99741.63;;;10.97;100.00
42591;BME280;28218;53.342;-6.216;2023-03-18T04:23:03;99741.63;;;10.97;100.00
42591;BME280;28218;53.342;-6.216;2023-03-18T04:25:33;99744.25;;;10.97;100.00
42591;BME280;28218;53.342;-6.216;2023-03-18T04:28:02;99737.97;;;10.98;100.00
42591;BME280;28218;53.342;-6.216;2023-03-18T04:30:35;99741.63;;;10.97;100.00
42591;BME280;28218;53.342;-6.216;2023-03-18T04:33:03;99735.53;;;10.97;100.00
42591;BME280;28218;53.342;-6.216;2023-03-18T04:35:31;99738.34;;;10.95;100.00
42591;BME280;28218;53.342;-6.216;2023-03-18T04:38:00;99745.06;;;10.98;100.00
42591;BME280;28218;53.342;-6.216;2023-03-18T04:40:28;99735.69;;;10.95;100.00
42591;BME280;28218;53.342;-6.216;2023-03-18T04:42:58;99734.09;;;10.94;100.00
42591;BME280;28218;53.342;-6.216;2023-03-18T04:45:26;99739.72;;;10.91;100.00
42591;BME280;28218;53.342;-6.216;2023-03-18T04:47:55;99743.59;;;10.89;100.00
42591;BME280;28218;53.342;-6.216;2023-03-18T04:50:23;99750.03;;;10.86;100.00
42591;BME280;28218;53.342;-6.216;2023-03-18T04:52:51;99751.88;;;10.86;100.00
42591;BME280;28218;53.342;-6.216;2023-03-18T04:55:20;99756.97;;;10.87;100.00
42591;BME280;28218;53.342;-6.216;2023-03-18T04:57:48;99763.03;;;10.88;100.00
42591;BME280;28218;53.342;-6.216;2023-03-18T05:00:20;99763.03;;;10.88;100.00
42591;BME280;28218;53.342;-6.216;2023-03-18T05:02:49;99759.78;;;10.86;100.00
42591;BME280;28218;53.342;-6.216;2023-03-18T05:05:17;99758.34;;;10.83;100.00
42591;BME280;28218;53.342;-6.216;2023-03-18T05:07:46;99763.63;;;10.83;100.00
42591;BME280;28218;53.342;-6.216;2023-03-18T05:10:15;99765.44;;;10.83;100.00
42591;BME280;28218;53.342;-6.216;2023-03-18T05:12:45;99767.88;;;10.84;100.00
42591;BME280;28218;53.342;-6.216;2023-03-18T05:15:14;99769.91;;;10.82;100.00
42591;BME280;28218;53.342;-6.216;2023-03-18T05:17:44;99770.91;;;10.81;100.00
42591;BME280;28218;53.342;-6.216;2023-03-18T05:20:12;99782.00;;;10.77;100.00
42591;BME280;28218;53.342;-6.216;2023-03-18T05:22:40;99777.94;;;10.74;100.00
42591;BME280;28218;53.342;-6.216;2023-03-18T05:25:09;99778.75;;;10.74;100.00
42591;BME280;28218;53.342;-6.216;2023-03-18T05:27:38;99780.34;;;10.69;100.00
42591;BME280;28218;53.342;-6.216;2023-03-18T05:30:08;99778.91;;;10.66;100.00
42591;BME280;28218;53.342;-6.216;2023-03-18T05:32:38;99785.75;;;10.61;100.00
42591;BME280;28218;53.342;-6.216;2023-03-18T05:35:08;99785.97;;;10.59;100.00
42591;BME280;28218;53.342;-6.216;2023-03-18T05:37:37;99781.25;;;10.55;100.00
42591;BME280;28218;53.342;-6.216;2023-03-18T05:40:06;99785.06;;;10.52;100.00
42591;BME280;28218;53.342;-6.216;2023-03-18T05:42:38;99787.09;;;10.50;100.00
42591;BME280;28218;53.342;-6.216;2023-03-18T05:45:22;99788.47;;;10.46;100.00
42591;BME280;28218;53.342;-6.216;2023-03-18T05:47:51;99791.91;;;10.46;100.00
42591;BME280;28218;53.342;-6.216;2023-03-18T05:50:28;99793.94;;;10.44;100.00
42591;BME280;28218;53.342;-6.216;2023-03-18T05:52:57;99799.78;;;10.40;100.00
42591;BME280;28218;53.342;-6.216;2023-03-18T05:55:26;99802.56;;;10.38;100.00
42591;BME280;28218;53.342;-6.216;2023-03-18T05:57:56;99807.59;;;10.33;100.00
42591;BME280;28218;53.342;-6.216;2023-03-18T06:00:26;99807.81;;;10.32;100.00
42591;BME280;28218;53.342;-6.216;2023-03-18T06:02:56;99817.69;;;10.30;100.00
42591;BME280;28218;53.342;-6.216;2023-03-18T06:05:26;99815.63;;;10.25;100.00
42591;BME280;28218;53.342;-6.216;2023-03-18T06:07:56;99816.25;;;10.27;100.00
42591;BME280;28218;53.342;-6.216;2023-03-18T06:10:24;99819.91;;;10.26;100.00
42591;BME280;28218;53.342;-6.216;2023-03-18T06:12:53;99809.38;;;10.26;100.00
42591;BME280;28218;53.342;-6.216;2023-03-18T06:15:22;99822.88;;;10.23;100.00
42591;BME280;28218;53.342;-6.216;2023-03-18T06:17:51;99824.88;;;10.21;100.00
42591;BME280;28218;53.342;-6.216;2023-03-18T06:20:19;99829.31;;;10.20;100.00
42591;BME280;28218;53.342;-6.216;2023-03-18T06:22:49;99838.22;;;10.19;100.00
42591;BME280;28218;53.342;-6.216;2023-03-18T06:25:20;99835.59;;;10.19;100.00
42591;BME280;28218;53.342;-6.216;2023-03-18T06:27:48;99842.66;;;10.19;100.00
42591;BME280;28218;53.342;-6.216;2023-03-18T06:30:18;99846.41;;;10.10;100.00
42591;BME280;28218;53.342;-6.216;2023-03-18T06:32:47;99851.22;;;10.06;100.00
42591;BME280;28218;53.342;-6.216;2023-03-18T06:35:15;99852.25;;;10.05;100.00
42591;BME280;28218;53.342;-6.216;2023-03-18T06:37:44;99859.31;;;10.05;100.00
42591;BME280;28218;53.342;-6.216;2023-03-18T06:40:12;99861.16;;;10.04;100.00
42591;BME280;28218;53.342;-6.216;2023-03-18T06:42:42;99863.56;;;10.06;100.00
42591;BME280;28218;53.342;-6.216;2023-03-18T06:45:12;99859.13;;;10.06;100.00
42591;BME280;28218;53.342;-6.216;2023-03-18T06:47:40;99858.97;;;10.08;100.00
42591;BME280;28218;53.342;-6.216;2023-03-18T06:50:09;99865.66;;;10.10;100.00
42591;BME280;28218;53.342;-6.216;2023-03-18T06:52:39;99870.38;;;10.15;100.00
42591;BME280;28218;53.342;-6.216;2023-03-18T06:55:08;99879.53;;;10.19;100.00
42591;BME280;28218;53.342;-6.216;2023-03-18T06:57:36;99880.78;;;10.23;100.00
42591;BME280;28218;53.342;-6.216;2023-03-18T07:00:10;99881.59;;;10.23;100.00
42591;BME280;28218;53.342;-6.216;2023-03-18T07:02:39;99888.97;;;10.28;100.00
42591;BME280;28218;53.342;-6.216;2023-03-18T07:05:08;99889.22;;;10.33;100.00
42591;BME280;28218;53.342;-6.216;2023-03-18T07:07:38;99896.56;;;10.38;100.00
42591;BME280;28218;53.342;-6.216;2023-03-18T07:10:16;99900.47;;;10.42;100.00
42591;BME280;28218;53.342;-6.216;2023-03-18T07:12:44;99898.28;;;10.45;100.00
42591;BME280;28218;53.342;-6.216;2023-03-18T07:15:15;99899.34;;;10.51;100.00
42591;BME280;28218;53.342;-6.216;2023-03-18T07:17:46;99903.41;;;10.54;100.00
42591;BME280;28218;53.342;-6.216;2023-03-18T07:20:15;99901.06;;;10.59;100.00
42591;BME280;28218;53.342;-6.216;2023-03-18T07:22:45;99906.72;;;10.62;100.00
42591;BME280;28218;53.342;-6.216;2023-03-18T07:25:13;99910.81;;;10.65;100.00
42591;BME280;28218;53.342;-6.216;2023-03-18T07:27:42;99908.44;;;10.70;100.00
42591;BME280;28218;53.342;-6.216;2023-03-18T07:30:12;99903.38;;;10.68;100.00
42591;BME280;28218;53.342;-6.216;2023-03-18T07:32:41;99920.59;;;10.71;100.00
42591;BME280;28218;53.342;-6.216;2023-03-18T07:35:11;99919.78;;;10.70;100.00
42591;BME280;28218;53.342;-6.216;2023-03-18T07:37:40;99922.88;;;10.74;100.00
42591;BME280;28218;53.342;-6.216;2023-03-18T07:40:10;99923.31;;;10.78;100.00
42591;BME280;28218;53.342;-6.216;2023-03-18T07:42:38;99924.13;;;10.78;100.00
42591;BME280;28218;53.342;-6.216;2023-03-18T07:45:08;99929.19;;;10.80;100.00
42591;BME280;28218;53.342;-6.216;2023-03-18T07:47:37;99931.72;;;10.88;100.00
42591;BME280;28218;53.342;-6.216;2023-03-18T07:50:08;99930.94;;;10.94;100.00
42591;BME280;28218;53.342;-6.216;2023-03-18T07:52:38;99933.47;;;11.02;100.00
42591;BME280;28218;53.342;-6.216;2023-03-18T07:55:06;99934.72;;;11.06;100.00
42591;BME280;28218;53.342;-6.216;2023-03-18T07:57:35;99936.00;;;11.17;100.00
42591;BME280;28218;53.342;-6.216;2023-03-18T08:00:05;99934.44;;;11.22;100.00
42591;BME280;28218;53.342;-6.216;2023-03-18T08:02:34;99931.66;;;11.31;100.00
42591;BME280;28218;53.342;-6.216;2023-03-18T08:05:02;99940.63;;;11.36;100.00
42591;BME280;28218;53.342;-6.216;2023-03-18T08:07:34;99942.47;;;11.42;100.00
42591;BME280;28218;53.342;-6.216;2023-03-18T08:10:04;99949.00;;;11.46;100.00
42591;BME280;28218;53.342;-6.216;2023-03-18T08:12:33;99951.47;;;11.48;100.00
42591;BME280;28218;53.342;-6.216;2023-03-18T08:15:18;99957.78;;;11.54;100.00
42591;BME280;28218;53.342;-6.216;2023-03-18T08:17:47;99951.28;;;11.56;100.00
42591;BME280;28218;53.342;-6.216;2023-03-18T08:20:16;99963.09;;;11.60;100.00
42591;BME280;28218;53.342;-6.216;2023-03-18T08:22:45;99965.16;;;11.65;100.00
42591;BME280;28218;53.342;-6.216;2023-03-18T08:25:14;99961.75;;;11.71;100.00
42591;BME280;28218;53.342;-6.216;2023-03-18T08:27:43;99963.63;;;11.77;100.00
42591;BME280;28218;53.342;-6.216;2023-03-18T08:30:12;99969.97;;;11.83;100.00
42591;BME280;28218;53.342;-6.216;2023-03-18T08:32:41;99964.31;;;11.86;100.00
42591;BME280;28218;53.342;-6.216;2023-03-18T08:35:09;99972.47;;;11.91;100.00
42591;BME280;28218;53.342;-6.216;2023-03-18T08:37:38;99968.41;;;11.95;100.00
42591;BME280;28218;53.342;-6.216;2023-03-18T08:40:09;99967.81;;;11.99;100.00
42591;BME280;28218;53.342;-6.216;2023-03-18T08:42:38;99977.63;;;12.06;100.00
42591;BME280;28218;53.342;-6.216;2023-03-18T08:45:07;99980.47;;;12.11;100.00
42591;BME280;28218;53.342;-6.216;2023-03-18T08:47:35;99982.31;;;12.17;100.00
42591;BME280;28218;53.342;-6.216;2023-03-18T08:50:04;99985.41;;;12.27;100.00
42591;BME280;28218;53.342;-6.216;2023-03-18T08:52:33;99984.66;;;12.40;100.00
42591;BME280;28218;53.342;-6.216;2023-03-18T08:55:04;99991.19;;;12.50;100.00
42591;BME280;28218;53.342;-6.216;2023-03-18T08:57:34;99995.72;;;12.57;100.00
42591;BME280;28218;53.342;-6.216;2023-03-18T09:00:04;99996.09;;;12.60;100.00
42591;BME280;28218;53.342;-6.216;2023-03-18T09:02:33;99997.53;;;12.63;100.00
42591;BME280;28218;53.342;-6.216;2023-03-18T09:05:02;100002.03;;;12.62;100.00
42591;BME280;28218;53.342;-6.216;2023-03-18T09:07:31;100003.25;;;12.66;100.00
42591;BME280;28218;53.342;-6.216;2023-03-18T09:09:59;100002.25;;;12.67;100.00
42591;BME280;28218;53.342;-6.216;2023-03-18T09:12:27;100008.94;;;12.70;100.00
42591;BME280;28218;53.342;-6.216;2023-03-18T09:14:57;100009.56;;;12.72;100.00
42591;BME280;28218;53.342;-6.216;2023-03-18T09:17:25;100015.47;;;12.74;100.00
42591;BME280;28218;53.342;-6.216;2023-03-18T09:20:15;100017.28;;;12.73;100.00
42591;BME280;28218;53.342;-6.216;2023-03-18T09:22:44;100030.31;;;12.75;100.00
42591;BME280;28218;53.342;-6.216;2023-03-18T09:25:13;100023.00;;;12.77;100.00
42591;BME280;28218;53.342;-6.216;2023-03-18T09:27:42;100032.75;;;12.76;100.00
42591;BME280;28218;53.342;-6.216;2023-03-18T09:30:13;100043.75;;;12.80;100.00
42591;BME280;28218;53.342;-6.216;2023-03-18T09:32:41;100042.53;;;12.76;100.00
42591;BME280;28218;53.342;-6.216;2023-03-18T09:35:11;100045.56;;;12.79;100.00
42591;BME280;28218;53.342;-6.216;2023-03-18T09:37:40;100050.69;;;12.81;100.00
42591;BME280;28218;53.342;-6.216;2023-03-18T09:40:16;100048.03;;;12.88;100.00
42591;BME280;28218;53.342;-6.216;2023-03-18T09:42:55;100051.31;;;12.96;100.00
42591;BME280;28218;53.342;-6.216;2023-03-18T09:45:31;100066.19;;;13.04;100.00
42591;BME280;28218;53.342;-6.216;2023-03-18T09:48:31;100069.88;;;13.10;100.00
42591;BME280;28218;53.342;-6.216;2023-03-18T09:51:11;100074.78;;;13.13;100.00
42591;BME280;28218;53.342;-6.216;2023-03-18T09:53:49;100075.75;;;13.12;100.00
42591;BME280;28218;53.342;-6.216;2023-03-18T09:56:25;100087.56;;;13.09;100.00
42591;BME280;28218;53.342;-6.216;2023-03-18T09:58:57;100089.41;;;13.09;100.00
42591;BME280;28218;53.342;-6.216;2023-03-18T10:01:32;100088.78;;;13.07;100.00
42591;BME280;28218;53.342;-6.216;2023-03-18T10:04:05;100100.38;;;13.05;100.00
42591;BME280;28218;53.342;-6.216;2023-03-18T10:06:40;100109.31;;;13.04;100.00
42591;BME280;28218;53.342;-6.216;2023-03-18T10:09:15;100113.38;;;13.00;100.00
42591;BME280;28218;53.342;-6.216;2023-03-18T10:11:47;100115.81;;;13.02;100.00
42591;BME280;28218;53.342;-6.216;2023-03-18T10:14:32;100119.06;;;12.97;100.00
42591;BME280;28218;53.342;-6.216;2023-03-18T10:17:13;100134.53;;;13.00;100.00
42591;BME280;28218;53.342;-6.216;2023-03-18T10:19:46;100138.59;;;13.03;100.00
42591;BME280;28218;53.342;-6.216;2023-03-18T10:22:39;100138.59;;;13.03;100.00
42591;BME280;28218;53.342;-6.216;2023-03-18T10:25:18;100135.56;;;13.06;100.00
42591;BME280;28218;53.342;-6.216;2023-03-18T10:28:02;100146.34;;;13.04;100.00
42591;BME280;28218;53.342;-6.216;2023-03-18T10:30:46;100151.81;;;13.03;100.00
42591;BME280;28218;53.342;-6.216;2023-03-18T10:33:25;100150.41;;;13.07;100.00
42591;BME280;28218;53.342;-6.216;2023-03-18T10:36:04;100147.19;;;13.12;100.00
42591;BME280;28218;53.342;-6.216;2023-03-18T10:38:36;100156.94;;;13.11;100.00
42591;BME280;28218;53.342;-6.216;2023-03-18T10:41:14;100155.09;;;13.12;100.00
42591;BME280;28218;53.342;-6.216;2023-03-18T10:43:44;100150.66;;;13.19;100.00
42591;BME280;28218;53.342;-6.216;2023-03-18T10:46:15;100152.53;;;13.25;100.00
42591;BME280;28218;53.342;-6.216;2023-03-18T10:48:47;100150.94;;;13.30;100.00
42591;BME280;28218;53.342;-6.216;2023-03-18T10:51:20;100154.22;;;13.39;100.00
42591;BME280;28218;53.342;-6.216;2023-03-18T10:53:56;100149.13;;;13.44;100.00
42591;BME280;28218;53.342;-6.216;2023-03-18T10:56:26;100159.31;;;13.54;100.00
42591;BME280;28218;53.342;-6.216;2023-03-18T10:58:55;100162.38;;;13.58;100.00
42591;BME280;28218;53.342;-6.216;2023-03-18T11:01:27;100164.44;;;13.62;100.00
42591;BME280;28218;53.342;-6.216;2023-03-18T11:03:59;100172.16;;;13.57;100.00
42591;BME280;28218;53.342;-6.216;2023-03-18T11:06:35;100169.31;;;13.59;100.00
42591;BME280;28218;53.342;-6.216;2023-03-18T11:09:10;100181.31;;;13.54;100.00
42591;BME280;28218;53.342;-6.216;2023-03-18T11:11:39;100188.44;;;13.47;100.00
42591;BME280;28218;53.342;-6.216;2023-03-18T11:14:13;100191.69;;;13.43;100.00
42591;BME280;28218;53.342;-6.216;2023-03-18T11:16:45;100194.31;;;13.36;100.00
42591;BME280;28218;53.342;-6.216;2023-03-18T11:19:27;100194.50;;;13.35;100.00
42591;BME280;28218;53.342;-6.216;2023-03-18T11:22:04;100195.91;;;13.30;100.00
42591;BME280;28218;53.342;-6.216;2023-03-18T11:24:42;100190.63;;;13.30;100.00
42591;BME280;28218;53.342;-6.216;2023-03-18T11:27:32;100198.56;;;13.30;100.00
42591;BME280;28218;53.342;-6.216;2023-03-18T11:30:08;100201.19;;;13.30;100.00
42591;BME280;28218;53.342;-6.216;2023-03-18T11:32:51;100205.91;;;13.35;100.00
42591;BME280;28218;53.342;-6.216;2023-03-18T11:35:23;100203.47;;;13.40;100.00
42591;BME280;28218;53.342;-6.216;2023-03-18T11:37:52;100205.13;;;13.41;100.00
42591;BME280;28218;53.342;-6.216;2023-03-18T11:40:25;100209.19;;;13.37;100.00
42591;BME280;28218;53.342;-6.216;2023-03-18T11:42:55;100206.53;;;13.37;100.00
42591;BME280;28218;53.342;-6.216;2023-03-18T11:45:41;100209.78;;;13.39;100.00
42591;BME280;28218;53.342;-6.216;2023-03-18T11:48:15;100214.25;;;13.39;100.00
42591;BME280;28218;53.342;-6.216;2023-03-18T11:50:59;100216.09;;;13.32;100.00
42591;BME280;28218;53.342;-6.216;2023-03-18T11:53:39;100224.63;;;13.27;100.00
42591;BME280;28218;53.342;-6.216;2023-03-18T11:56:15;100219.44;;;13.19;100.00
42591;BME280;28218;53.342;-6.216;2023-03-18T11:58:59;100231.22;;;13.16;100.00
42591;BME280;28218;53.342;-6.216;2023-03-18T12:01:38;100236.28;;;13.11;100.00
42591;BME280;28218;53.342;-6.216;2023-03-18T12:04:31;100225.72;;;13.11;100.00
42591;BME280;28218;53.342;-6.216;2023-03-18T12:07:35;100222.06;;;13.12;100.00
42591;BME280;28218;53.342;-6.216;2023-03-18T12:10:15;100229.59;;;13.09;100.00
42591;BME280;28218;53.342;-6.216;2023-03-18T12:12:54;100240.44;;;12.86;100.00
42591;BME280;28218;53.342;-6.216;2023-03-18T12:15:34;100249.97;;;12.80;100.00
42591;BME280;28218;53.342;-6.216;2023-03-18T12:18:16;100250.13;;;12.72;100.00
42591;BME280;28218;53.342;-6.216;2023-03-18T12:20:49;100265.03;;;12.51;100.00
42591;BME280;28218;53.342;-6.216;2023-03-18T12:23:40;100258.84;;;12.44;100.00
42591;BME280;28218;53.342;-6.216;2023-03-18T12:26:21;100268.75;;;12.36;100.00
42591;BME280;28218;53.342;-6.216;2023-03-18T12:29:07;100276.88;;;12.34;100.00
42591;BME280;28218;53.342;-6.216;2023-03-18T12:31:56;100281.34;;;12.34;100.00
42591;BME280;28218;53.342;-6.216;2023-03-18T12:34:41;100282.78;;;12.36;100.00
42591;BME280;28218;53.342;-6.216;2023-03-18T12:37:25;100291.72;;;12.35;100.00
42591;BME280;28218;53.342;-6.216;2023-03-18T12:40:08;100296.69;;;12.23;100.00
42591;BME280;28218;53.342;-6.216;2023-03-18T12:42:55;100305.19;;;12.19;100.00
42591;BME280;28218;53.342;-6.216;2023-03-18T12:45:32;100312.25;;;12.18;100.00
42591;BME280;28218;53.342;-6.216;2023-03-18T12:48:07;100321.03;;;12.19;100.00
42591;BME280;28218;53.342;-6.216;2023-03-18T12:50:40;100318.19;;;12.20;100.00
42591;BME280;28218;53.342;-6.216;2023-03-18T12:53:13;100321.75;;;12.13;100.00
42591;BME280;28218;53.342;-6.216;2023-03-18T12:55:47;100337.44;;;12.14;100.00
42591;BME280;28218;53.342;-6.216;2023-03-18T12:58:21;100335.72;;;12.07;100.00
42591;BME280;28218;53.342;-6.216;2023-03-18T13:00:53;100339.38;;;12.06;100.00